Time;durP1;ratioP1;P1;durP2;ratioP2;P2;SDS_P1;SDS_P2;PMS_P1;PMS_P2;Temp;Humidity;BMP_temperature;BMP_pressure;BME280_temperature;BME280_humidity;BME280_pressure;Samples;Min_cycle;Max_cycle;Signal;HPM_P1;HPM_P2
2022/09/10 00:01:17;;;;;;;15.70;7.27;;;;;;;14.12;100.00;100790.41;4997782;28;20033;-88
2022/09/10 00:03:42;;;;;;;17.57;8.00;;;;;;;14.10;100.00;100784.34;4998611;28;20065;-89
2022/09/10 00:06:09;;;;;;;19.40;8.63;;;;;;;14.11;100.00;100786.03;4997979;28;20040;-86
2022/09/10 00:08:37;;;;;;;17.07;8.73;;;;;;;14.16;100.00;100780.69;4998262;28;20053;-87
2022/09/10 00:11:07;;;;;;;19.07;10.00;;;;;;;14.12;100.00;100785.78;4997865;28;20030;-90
2022/09/10 00:13:33;;;;;;;19.60;9.33;;;;;;;14.11;100.00;100786.84;4997972;28;20113;-86
2022/09/10 00:16:01;;;;;;;17.87;9.93;;;;;;;14.11;100.00;100786.03;4997918;28;20045;-87
2022/09/10 00:18:26;;;;;;;19.83;9.70;;;;;;;14.12;100.00;100779.53;4972498;28;20040;-88
2022/09/10 00:20:54;;;;;;;16.57;8.60;;;;;;;14.06;100.00;100775.84;4980340;28;20026;-89
2022/09/10 00:23:25;;;;;;;19.77;9.17;;;;;;;14.08;100.00;100775.63;4998823;28;20123;-90
2022/09/10 00:25:52;;;;;;;14.80;7.80;;;;;;;14.05;100.00;100768.75;4997487;28;20033;-87
2022/09/10 00:28:42;;;;;;;15.63;7.53;;;;;;;14.13;100.00;100775.69;4997765;28;20210;-87
2022/09/10 00:31:08;;;;;;;19.93;8.50;;;;;;;14.02;100.00;100769.22;4997300;28;20114;-86
2022/09/10 00:33:33;;;;;;;18.23;8.30;;;;;;;14.01;100.00;100776.53;4998064;28;20492;-86
2022/09/10 00:35:58;;;;;;;21.80;8.90;;;;;;;14.00;100.00;100785.78;4997163;28;20037;-88
2022/09/10 00:38:28;;;;;;;18.60;9.63;;;;;;;14.05;100.00;100786.97;4979173;28;20042;-87
2022/09/10 00:41:01;;;;;;;20.27;10.60;;;;;;;14.05;100.00;100781.50;4997133;28;20029;-87
2022/09/10 00:43:47;;;;;;;21.00;9.80;;;;;;;14.07;100.00;100776.66;4997521;28;20033;-86
2022/09/10 00:46:19;;;;;;;20.23;10.27;;;;;;;14.08;100.00;100776.44;4997351;28;20580;-86
2022/09/10 00:48:44;;;;;;;20.33;9.87;;;;;;;14.04;100.00;100771.69;4998141;28;20038;-86
2022/09/10 00:51:10;;;;;;;19.27;9.60;;;;;;;14.05;100.00;100778.78;4997550;28;20104;-86
2022/09/10 00:53:35;;;;;;;20.40;10.17;;;;;;;14.02;100.00;100775.50;4997220;28;20125;-89
2022/09/10 00:56:03;;;;;;;20.80;10.43;;;;;;;14.02;100.00;100778.22;4997120;28;20030;-87
2022/09/10 00:58:28;;;;;;;20.50;9.57;;;;;;;14.05;100.00;100779.63;4997226;28;20046;-86
2022/09/10 01:00:59;;;;;;;17.60;9.40;;;;;;;14.10;100.00;100777.03;4997197;28;20034;-89
2022/09/10 01:03:24;;;;;;;20.17;10.17;;;;;;;14.05;100.00;100787.81;4996748;28;20143;-87
2022/09/10 01:05:50;;;;;;;23.80;10.10;;;;;;;14.05;100.00;100781.50;4997319;28;20057;-86
2022/09/10 01:08:21;;;;;;;18.97;10.27;;;;;;;14.01;100.00;100784.72;4996756;28;21348;-88
2022/09/10 01:11:00;;;;;;;18.93;9.40;;;;;;;13.99;100.00;100778.69;4996398;28;20058;-86
2022/09/10 01:13:34;;;;;;;18.23;9.00;;;;;;;14.03;100.00;100784.47;4996681;28;20061;-88
2022/09/10 01:16:18;;;;;;;;;;;;;;;14.13;100.00;100783.88;4997059;28;20034;-87
2022/09/10 01:18:55;;;;;;;18.80;9.57;;;;;;;14.07;100.00;100784.84;4996565;28;20365;-88
2022/09/10 01:21:31;;;;;;;17.47;9.60;;;;;;;14.00;100.00;100784.97;4996317;28;20167;-87
2022/09/10 01:24:15;;;;;;;19.87;9.63;;;;;;;13.98;100.00;100787.91;4997259;28;20041;-86
2022/09/10 01:26:58;;;;;;;18.42;9.75;;;;;;;14.04;100.00;100779.88;4996243;28;20037;-87
2022/09/10 01:29:34;;;;;;;20.70;9.70;;;;;;;14.06;100.00;100789.47;4997484;28;20032;-86
2022/09/10 01:32:04;;;;;;;16.53;9.90;;;;;;;14.02;100.00;100786.38;4996843;28;20729;-87
2022/09/10 01:34:48;;;;;;;16.53;9.90;;;;;;;14.04;100.00;100780.69;4996176;28;20415;-86
2022/09/10 01:37:22;;;;;;;17.40;9.50;;;;;;;13.98;100.00;100784.34;4996435;28;20040;-87
2022/09/10 01:39:48;;;;;;;18.90;10.60;;;;;;;14.04;100.00;100791.59;4996811;28;20703;-88
2022/09/10 01:42:14;;;;;;;24.30;12.60;;;;;;;14.04;100.00;100790.78;4978891;28;20038;-85
2022/09/10 01:44:50;;;;;;;20.90;12.10;;;;;;;14.05;100.00;100785.09;4996579;28;20044;-87
2022/09/10 01:47:43;;;;;;;20.43;11.93;;;;;;;14.08;100.00;100792.78;4995841;28;20124;-85
2022/09/10 01:50:33;;;;;;;23.07;12.17;;;;;;;14.14;100.00;100796.44;4996728;28;20568;-86
2022/09/10 01:53:17;;;;;;;22.97;12.43;;;;;;;14.11;100.00;100788.75;4964121;28;20401;-86
2022/09/10 01:56:02;;;;;;;25.58;12.68;;;;;;;14.10;100.00;100784.34;4995701;28;20041;-89
2022/09/10 01:58:39;;;;;;;25.83;14.37;;;;;;;14.11;100.00;100788.75;4996675;28;20049;-87
2022/09/10 02:01:24;;;;;;;25.37;14.07;;;;;;;14.11;100.00;100788.75;4996539;28;20033;-88
2022/09/10 02:03:56;;;;;;;27.70;14.80;;;;;;;14.08;100.00;100781.88;4996789;28;20124;-89
2022/09/10 02:06:26;;;;;;;26.47;14.90;;;;;;;14.07;100.00;100779.41;4995559;28;20042;-90
2022/09/10 02:08:53;;;;;;;23.53;14.80;;;;;;;14.07;100.00;100769.31;4996325;28;20042;-86
2022/09/10 02:11:20;;;;;;;27.87;16.07;;;;;;;14.06;100.00;100777.72;4996148;28;20121;-89
2022/09/10 02:13:45;;;;;;;28.93;15.03;;;;;;;14.09;100.00;100774.53;4996182;28;20058;-90
2022/09/10 02:16:16;;;;;;;24.17;14.43;;;;;;;14.09;100.00;100777.25;4996205;28;20042;-92
2022/09/10 02:18:42;;;;;;;23.17;14.97;;;;;;;14.08;100.00;100781.88;4996457;28;20033;-89
2022/09/10 02:21:09;;;;;;;23.13;15.17;;;;;;;14.09;100.00;100771.78;4996494;28;20087;-89
2022/09/10 02:23:48;;;;;;;26.77;15.07;;;;;;;14.11;100.00;100775.13;4979553;28;20041;-89
2022/09/10 02:26:14;;;;;;;23.17;15.23;;;;;;;14.10;100.00;100773.47;4996825;28;20076;-90
2022/09/10 02:28:42;;;;;;;26.07;15.20;;;;;;;14.11;100.00;100759.59;4996118;28;20638;-91
2022/09/10 02:31:08;;;;;;;25.77;14.50;;;;;;;14.10;100.00;100763.41;4996142;28;20071;-91
2022/09/10 02:33:34;;;;;;;26.13;14.40;;;;;;;14.21;100.00;100769.06;4995121;28;20064;-90
2022/09/10 02:36:00;;;;;;;25.37;14.93;;;;;;;14.17;100.00;100763.25;4996855;28;20046;-89
2022/09/10 02:38:28;;;;;;;28.80;16.13;;;;;;;14.18;100.00;100754.03;4994696;28;20060;-86
2022/09/10 02:40:54;;;;;;;26.07;15.97;;;;;;;14.17;100.00;100749.63;4978614;28;20077;-89
2022/09/10 02:43:20;;;;;;;25.83;15.60;;;;;;;14.19;100.00;100758.41;4996065;28;20084;-87
2022/09/10 02:45:45;;;;;;;26.47;15.87;;;;;;;14.28;100.00;100756.16;4996703;28;20026;-89
2022/09/10 02:48:11;;;;;;;27.63;15.40;;;;;;;14.26;100.00;100761.84;4996317;28;20092;-91
2022/09/10 02:50:36;;;;;;;27.20;16.30;;;;;;;14.27;100.00;100760.78;4996027;28;20541;-88
2022/09/10 02:53:01;;;;;;;26.47;16.13;;;;;;;14.27;100.00;100755.31;4995395;28;20038;-89
2022/09/10 02:55:27;;;;;;;27.50;18.30;;;;;;;14.31;100.00;100761.13;4996659;28;20130;-88
2022/09/10 02:57:53;;;;;;;27.30;17.60;;;;;;;14.28;100.00;100758.88;4973602;28;20124;-90
2022/09/10 03:00:20;;;;;;;24.77;16.37;;;;;;;14.31;100.00;100761.97;4996377;28;20037;-89
2022/09/10 03:02:46;;;;;;;26.50;17.07;;;;;;;14.34;100.00;100757.94;4995578;28;20124;-87
2022/09/10 03:05:13;;;;;;;27.23;17.73;;;;;;;14.32;100.00;100758.19;4995941;28;20042;-88
2022/09/10 03:07:38;;;;;;;26.73;17.70;;;;;;;14.32;100.00;100765.50;4976772;28;20116;-88
2022/09/10 03:10:04;;;;;;;25.47;16.23;;;;;;;14.36;100.00;100772.16;4995379;28;20045;-91
2022/09/10 03:12:30;;;;;;;26.10;17.67;;;;;;;14.38;100.00;100761.00;4995810;28;20134;-87
2022/09/10 03:14:57;;;;;;;27.07;18.43;;;;;;;14.35;100.00;100754.97;4995839;28;20137;-88
2022/09/10 03:17:23;;;;;;;24.70;16.80;;;;;;;14.39;100.00;100773.56;4998024;28;20041;-92
2022/09/10 03:19:49;;;;;;;25.90;16.97;;;;;;;14.41;100.00;100769.53;4999501;28;20040;-90
2022/09/10 03:22:14;;;;;;;24.77;17.73;;;;;;;14.41;100.00;100764.06;4999546;28;20038;-90
2022/09/10 03:24:40;;;;;;;25.90;18.33;;;;;;;14.40;100.00;100764.31;4999503;28;20069;-91
2022/09/10 03:27:06;;;;;;;26.33;17.27;;;;;;;14.40;100.00;100764.31;4999364;28;20064;-89
2022/09/10 03:29:31;;;;;;;25.30;16.77;;;;;;;14.40;100.00;100769.78;4997873;28;20029;-86
2022/09/10 03:31:56;;;;;;;24.73;17.30;;;;;;;14.44;100.00;100768.22;4998731;28;20497;-90
2022/09/10 03:34:22;;;;;;;28.50;18.63;;;;;;;14.40;100.00;100767.03;4998887;28;20042;-88
2022/09/10 03:36:47;;;;;;;25.90;17.60;;;;;;;14.40;100.00;100761.59;5001294;28;20136;-92
2022/09/10 03:39:17;;;;;;;26.90;18.13;;;;;;;14.40;100.00;100758.88;5006136;28;20042;-94
2022/09/10 03:41:44;;;;;;;25.27;18.03;;;;;;;14.39;100.00;100759.94;5003527;28;20045;-90
2022/09/10 03:44:10;;;;;;;24.87;17.37;;;;;;;14.35;100.00;100754.97;5005920;28;20080;-93
2022/09/10 03:46:36;;;;;;;24.80;17.67;;;;;;;14.41;100.00;100755.06;5001363;28;20018;-93
2022/09/10 03:49:02;;;;;;;25.27;18.73;;;;;;;14.41;100.00;100752.34;5001268;28;20062;-89
2022/09/10 03:51:28;;;;;;;26.00;17.77;;;;;;;14.41;100.00;100750.44;5000785;28;21454;-88
2022/09/10 03:53:54;;;;;;;28.67;18.63;;;;;;;14.38;100.00;100747.38;4973681;28;20057;-89
2022/09/10 03:56:19;;;;;;;28.93;19.27;;;;;;;14.41;100.00;100750.44;4998104;28;20415;-94
2022/09/10 03:58:45;;;;;;;28.77;20.17;;;;;;;14.39;100.00;100759.94;5001743;28;20099;-85
2022/09/10 04:01:11;;;;;;;27.10;18.97;;;;;;;14.42;100.00;100746.66;4998150;28;20052;-90
2022/09/10 04:03:36;;;;;;;28.63;19.53;;;;;;;14.45;100.00;100756.25;4998047;28;20041;-86
2022/09/10 04:06:02;;;;;;;27.87;21.13;;;;;;;14.44;100.00;100754.59;4980777;28;20116;-87
2022/09/10 04:08:27;;;;;;;31.27;20.90;;;;;;;14.41;100.00;100752.34;4978742;28;20100;-84
2022/09/10 04:10:53;;;;;;;31.33;21.70;;;;;;;14.39;100.00;100746.28;4998732;28;20575;-85
2022/09/10 04:13:18;;;;;;;31.57;20.87;;;;;;;14.40;100.00;100750.69;4997353;28;20050;-82
2022/09/10 04:15:45;;;;;;;32.13;21.83;;;;;;;14.40;100.00;100745.25;4997081;28;20504;-86
2022/09/10 04:18:10;;;;;;;27.73;20.07;;;;;;;14.35;100.00;100735.06;4979633;28;20042;-83
2022/09/10 04:20:37;;;;;;;30.83;21.63;;;;;;;14.39;100.00;100743.56;4997791;28;20045;-82
2022/09/10 04:23:04;;;;;;;31.77;22.60;;;;;;;14.35;100.00;100746.78;4980455;28;20573;-84
2022/09/10 04:25:29;;;;;;;30.10;22.80;;;;;;;14.36;100.00;100742.19;4998235;28;20132;-88
2022/09/10 04:27:55;;;;;;;30.13;21.63;;;;;;;14.38;100.00;100742.75;4996557;28;20042;-89
2022/09/10 04:30:21;;;;;;;32.40;22.27;;;;;;;14.39;100.00;100740.84;4998215;28;20046;-91
2022/09/10 04:32:46;;;;;;;29.70;21.20;;;;;;;14.39;100.00;100743.56;4997600;28;20553;-88
2022/09/10 04:35:14;;;;;;;33.73;23.10;;;;;;;14.42;100.00;100743.94;4998268;28;20453;-88
2022/09/10 04:37:39;;;;;;;33.73;22.53;;;;;;;14.43;100.00;100740.16;4997414;28;20049;-86
2022/09/10 04:40:05;;;;;;;32.20;23.00;;;;;;;14.45;100.00;100740.72;4997168;28;20433;-87
2022/09/10 04:42:31;;;;;;;30.00;22.70;;;;;;;14.42;100.00;100749.38;4997394;28;20498;-85
2022/09/10 04:44:58;;;;;;;34.57;24.40;;;;;;;14.45;100.00;100745.34;4998124;28;20044;-86
2022/09/10 04:47:23;;;;;;;35.40;23.90;;;;;;;14.46;100.00;100749.75;4997200;28;20033;-87
2022/09/10 04:49:49;;;;;;;32.70;23.57;;;;;;;14.45;100.00;100748.91;4998404;28;20076;-90
2022/09/10 04:52:16;;;;;;;36.80;23.60;;;;;;;14.45;100.00;100753.53;4996052;28;20045;-90
2022/09/10 04:54:41;;;;;;;33.17;23.63;;;;;;;14.45;100.00;100756.25;4998360;28;20032;-89
2022/09/10 04:57:07;;;;;;;32.23;22.97;;;;;;;14.48;100.00;100758.50;4996672;28;20038;-92
2022/09/10 04:59:33;;;;;;;30.47;22.83;;;;;;;14.45;100.00;100753.53;4999177;28;20580;-91
2022/09/10 05:01:59;;;;;;;31.97;22.93;;;;;;;14.44;100.00;100754.59;4997858;28;20042;-87
2022/09/10 05:04:25;;;;;;;31.43;22.70;;;;;;;14.49;100.00;100749.25;4997400;28;20042;-85
2022/09/10 05:06:52;;;;;;;33.23;22.23;;;;;;;14.47;100.00;100746.78;4996400;28;20048;-86
2022/09/10 05:09:17;;;;;;;27.43;21.13;;;;;;;14.45;100.00;100748.09;4996869;28;20033;-89
2022/09/10 05:11:42;;;;;;;33.30;22.50;;;;;;;14.47;100.00;100756.81;4997607;28;20034;-93
2022/09/10 05:14:08;;;;;;;30.73;23.30;;;;;;;14.46;100.00;100747.84;4977966;28;20044;-86
2022/09/10 05:16:35;;;;;;;29.90;21.07;;;;;;;14.54;100.00;100749.38;4974896;28;20062;-90
2022/09/10 05:19:00;;;;;;;30.40;21.77;;;;;;;14.53;100.00;100745.78;4997263;28;20741;-91
2022/09/10 05:21:26;;;;;;;28.57;21.30;;;;;;;14.51;100.00;100747.94;4997638;28;20030;-88
2022/09/10 05:23:51;;;;;;;29.73;21.80;;;;;;;14.49;100.00;100741.88;4979465;28;20393;-88
2022/09/10 05:26:16;;;;;;;28.83;21.10;;;;;;;14.51;100.00;100747.94;4979497;28;20053;-94
2022/09/10 05:28:42;;;;;;;34.03;21.53;;;;;;;14.55;100.00;100751.03;4995138;28;20613;-89
2022/09/10 05:31:08;;;;;;;35.00;21.97;;;;;;;14.55;100.00;100763.81;4997103;28;20470;-89
2022/09/10 05:33:39;;;;;;;30.37;21.80;;;;;;;14.55;100.00;100763.81;4997014;28;20034;-89
2022/09/10 05:36:10;;;;;;;30.50;22.23;;;;;;;14.56;100.00;100749.13;4997276;28;20042;-87
2022/09/10 05:38:35;;;;;;;35.03;23.83;;;;;;;14.55;100.00;100759.22;4996410;28;20041;-88
2022/09/10 05:41:01;;;;;;;30.50;22.23;;;;;;;14.59;100.00;100754.94;4996058;28;20054;-88
2022/09/10 05:43:27;;;;;;;30.93;21.90;;;;;;;14.57;100.00;100759.78;4996724;28;20418;-92
2022/09/10 05:45:52;;;;;;;30.43;22.63;;;;;;;14.60;100.00;100756.56;4996706;28;20695;-89
2022/09/10 05:48:18;;;;;;;27.87;22.23;;;;;;;14.61;100.00;100744.59;4994943;28;20044;-90
2022/09/10 05:50:44;;;;;;;31.93;21.53;;;;;;;14.64;100.00;100746.88;4996762;28;20038;-87
2022/09/10 05:53:10;;;;;;;29.50;21.13;;;;;;;14.67;100.00;100751.00;4996359;28;20041;-89
2022/09/10 05:55:35;;;;;;;35.17;22.87;;;;;;;14.65;100.00;100759.44;4995765;28;20033;-87
2022/09/10 05:58:01;;;;;;;34.73;22.57;;;;;;;14.65;100.00;100761.34;4995341;28;20038;-89
2022/09/10 06:00:27;;;;;;;32.53;24.93;;;;;;;14.61;100.00;100758.22;4995528;28;20115;-87
2022/09/10 06:02:53;;;;;;;28.60;22.27;;;;;;;14.65;100.00;100747.72;4996510;28;20038;-87
2022/09/10 06:05:21;;;;;;;29.37;21.03;;;;;;;14.70;100.00;100758.72;4978545;28;20034;-92
2022/09/10 06:07:48;;;;;;;30.10;21.80;;;;;;;14.74;100.00;100756.34;4996727;28;20403;-91
2022/09/10 06:10:14;;;;;;;33.23;22.93;;;;;;;14.66;100.00;100755.66;4996175;28;20084;-90
2022/09/10 06:12:45;;;;;;;32.23;25.00;;;;;;;14.65;100.00;100753.16;4978493;28;20053;-89
2022/09/10 06:15:10;;;;;;;32.37;23.47;;;;;;;14.67;100.00;100754.59;4996042;28;20041;-88
2022/09/10 06:17:37;;;;;;;30.07;22.57;;;;;;;14.72;100.00;100758.50;4996362;28;20053;-88
2022/09/10 06:20:03;;;;;;;30.27;23.93;;;;;;;14.71;100.00;100756.81;4981136;28;20048;-86
2022/09/10 06:22:29;;;;;;;31.10;24.13;;;;;;;14.76;100.00;100760.47;4995666;28;20038;-87
2022/09/10 06:24:55;;;;;;;34.53;25.30;;;;;;;14.77;100.00;100755.84;4995354;28;20038;-90
2022/09/10 06:27:22;;;;;;;32.83;23.57;;;;;;;14.77;100.00;100762.13;4995973;28;20470;-88
2022/09/10 06:29:47;;;;;;;29.60;21.77;;;;;;;14.82;100.00;100766.84;4995825;28;20025;-90
2022/09/10 06:32:13;;;;;;;29.80;22.53;;;;;;;14.83;100.00;100766.63;4997289;28;20053;-91
2022/09/10 06:34:38;;;;;;;31.80;23.23;;;;;;;14.80;100.00;100763.56;4981297;28;20046;-87
2022/09/10 06:37:04;;;;;;;28.03;20.17;;;;;;;14.87;100.00;100766.97;4978339;28;20036;-88
2022/09/10 06:39:30;;;;;;;25.90;20.10;;;;;;;14.86;100.00;100770.75;4995542;28;21492;-92
2022/09/10 06:41:55;;;;;;;26.00;20.90;;;;;;;14.79;100.00;100770.06;4997148;28;20034;-88
2022/09/10 06:44:21;;;;;;;26.50;20.90;;;;;;;14.79;100.00;100764.63;4977916;28;20041;-90
2022/09/10 06:46:47;;;;;;;31.40;21.77;;;;;;;14.78;100.00;100768.41;4996211;28;20410;-88
2022/09/10 06:49:13;;;;;;;26.70;21.07;;;;;;;14.87;100.00;100772.41;4995711;28;20541;-89
2022/09/10 06:51:41;;;;;;;27.80;20.10;;;;;;;14.82;100.00;100772.31;4996639;28;20040;-87
2022/09/10 06:54:07;;;;;;;25.97;19.77;;;;;;;14.84;100.00;100772.91;4999856;28;20082;-86
2022/09/10 06:56:33;;;;;;;25.97;20.50;;;;;;;14.82;100.00;100775.88;5000739;28;20029;-86
2022/09/10 06:58:58;;;;;;;25.97;20.80;;;;;;;14.81;100.00;100774.22;4999278;28;20034;-87
2022/09/10 07:01:24;;;;;;;26.20;20.47;;;;;;;14.81;100.00;100782.41;4999601;28;20034;-87
2022/09/10 07:03:57;;;;;;;26.10;19.13;;;;;;;14.80;100.00;100775.28;4999350;28;20126;-88
2022/09/10 07:06:24;;;;;;;25.13;20.40;;;;;;;14.82;100.00;100778.63;4999730;28;20044;-85
2022/09/10 07:08:55;;;;;;;26.00;21.07;;;;;;;14.81;100.00;100773.38;4998300;28;20124;-89
2022/09/10 07:11:21;;;;;;;27.33;21.53;;;;;;;14.83;100.00;100776.69;4999235;28;20088;-87
2022/09/10 07:13:50;;;;;;;27.00;23.17;;;;;;;14.84;100.00;100783.81;4981320;28;20049;-87
2022/09/10 07:16:18;;;;;;;27.20;22.73;;;;;;;14.92;100.00;100788.03;4965705;28;20045;-89
2022/09/10 07:18:46;;;;;;;28.57;22.20;;;;;;;14.89;100.00;100783.09;4998292;28;20033;-90
2022/09/10 07:21:14;;;;;;;28.67;23.53;;;;;;;14.91;100.00;100789.16;4999577;28;20038;-88
2022/09/10 07:23:40;;;;;;;28.93;22.70;;;;;;;14.94;100.00;100786.75;4998292;28;20061;-86
2022/09/10 07:26:14;;;;;;;30.10;22.80;;;;;;;14.94;100.00;100788.66;4999176;28;20485;-84
2022/09/10 07:28:41;;;;;;;27.63;23.08;;;;;;;14.91;100.00;100794.59;4998781;28;20045;-88
2022/09/10 07:31:28;;;;;;;27.50;22.93;;;;;;;14.92;100.00;100798.97;4998620;28;20125;-83
2022/09/10 07:33:54;;;;;;;26.50;22.67;;;;;;;14.92;100.00;100791.63;4999108;28;20046;-85
2022/09/10 07:36:20;;;;;;;25.87;21.67;;;;;;;14.88;100.00;100789.59;4999093;28;20042;-85
2022/09/10 07:38:47;;;;;;;25.47;21.60;;;;;;;14.95;100.00;100801.22;4999298;28;20040;-88
2022/09/10 07:41:14;;;;;;;26.03;21.83;;;;;;;14.91;100.00;100798.16;4981632;28;20398;-92
2022/09/10 07:43:40;;;;;;;23.67;20.77;;;;;;;14.91;100.00;100789.97;4999974;28;20069;-88
2022/09/10 07:46:07;;;;;;;24.73;21.53;;;;;;;14.90;100.00;100787.47;5000565;28;20034;-91
2022/09/10 07:48:33;;;;;;;26.43;21.10;;;;;;;14.94;100.00;100797.66;4982478;28;20041;-90
2022/09/10 07:51:03;;;;;;;25.47;21.53;;;;;;;14.91;100.00;100795.41;4980737;28;20049;-92
2022/09/10 07:53:28;;;;;;;27.77;22.57;;;;;;;14.92;100.00;100810.72;4997458;28;20034;-88
2022/09/10 07:56:01;;;;;;;26.73;23.43;;;;;;;14.90;100.00;100810.13;4999290;28;20088;-88
2022/09/10 07:58:28;;;;;;;26.53;23.67;;;;;;;14.94;100.00;100816.75;4998322;28;20050;-88
2022/09/10 08:00:53;;;;;;;28.20;23.93;;;;;;;14.94;100.00;100810.47;4999120;28;20078;-91
2022/09/10 08:03:20;;;;;;;28.97;25.87;;;;;;;14.96;100.00;100813.78;4997414;28;20526;-86
2022/09/10 08:05:47;;;;;;;29.27;26.10;;;;;;;14.96;100.00;100811.91;4981376;28;20069;-91
2022/09/10 08:08:12;;;;;;;29.63;26.47;;;;;;;15.00;100.00;100814.94;4998671;28;20048;-88
2022/09/10 08:10:38;;;;;;;31.27;27.97;;;;;;;15.01;100.00;100822.91;4998423;28;20034;-87
2022/09/10 08:13:03;;;;;;;31.03;27.93;;;;;;;15.05;100.00;100828.69;4996715;28;20056;-91
2022/09/10 08:15:28;;;;;;;31.40;28.20;;;;;;;15.07;100.00;100821.13;4976054;28;20117;-87
2022/09/10 08:17:54;;;;;;;31.33;27.90;;;;;;;15.15;100.00;100830.78;4998429;28;20030;-88
2022/09/10 08:20:20;;;;;;;32.77;29.40;;;;;;;15.20;100.00;100825.44;4980664;28;20108;-89
2022/09/10 08:22:48;;;;;;;32.93;29.60;;;;;;;15.24;100.00;100821.16;4998303;28;20034;-87
2022/09/10 08:25:13;;;;;;;33.43;30.03;;;;;;;15.32;100.00;100831.69;4998537;28;20129;-90
2022/09/10 08:27:39;;;;;;;33.53;30.03;;;;;;;15.39;100.00;100833.44;4998513;28;20585;-88
2022/09/10 08:30:06;;;;;;;35.00;31.50;;;;;;;15.45;100.00;100846.94;4997331;28;20033;-87
2022/09/10 08:32:33;;;;;;;34.37;30.97;;;;;;;15.49;100.00;100850.00;4998557;28;20528;-86
2022/09/10 08:34:59;;;;;;;34.23;30.93;;;;;;;15.56;100.00;100850.69;4998593;28;20044;-87
2022/09/10 08:37:24;;;;;;;33.63;30.23;;;;;;;15.64;100.00;100852.19;4997565;28;20160;-89
2022/09/10 08:39:49;;;;;;;33.30;30.10;;;;;;;15.73;100.00;100858.09;4996862;28;20061;-90
2022/09/10 08:42:23;;;;;;;33.67;30.07;;;;;;;15.85;100.00;100859.69;4998211;28;20092;-88
2022/09/10 08:44:54;;;;;;;32.35;29.00;;;;;;;15.78;100.00;100864.47;4998147;28;20076;-89
2022/09/10 08:47:22;;;;;;;32.97;29.73;;;;;;;15.88;100.00;100868.50;4998427;28;20651;-88
2022/09/10 08:49:53;;;;;;;32.27;29.07;;;;;;;15.88;100.00;100863.84;4997581;28;20359;-92
2022/09/10 08:52:28;;;;;;;32.77;29.43;;;;;;;15.91;100.00;100868.84;4997801;28;20561;-89
2022/09/10 08:55:16;;;;;;;33.13;29.70;;;;;;;15.97;100.00;100862.38;4978961;28;20034;-89
2022/09/10 08:58:03;;;;;;;30.80;27.60;;;;;;;16.01;100.00;100877.19;4997468;28;20183;-88
2022/09/10 09:00:33;;;;;;;31.10;28.03;;;;;;;16.06;100.00;100876.47;4997443;28;20278;-87
2022/09/10 09:03:14;;;;;;;30.43;27.43;;;;;;;16.04;100.00;100873.13;4998304;28;20041;-87
2022/09/10 09:05:47;;;;;;;29.40;26.40;;;;;;;16.06;100.00;100881.09;4997539;28;20048;-85
2022/09/10 09:08:17;;;;;;;28.23;25.33;;;;;;;16.03;100.00;100883.25;4997885;28;20510;-90
2022/09/10 09:11:35;;;;;;;27.83;24.93;;;;;;;16.10;100.00;100885.84;4970255;28;20034;-86
2022/09/10 09:14:20;;;;;;;28.10;25.10;;;;;;;16.05;100.00;100891.19;4946864;28;20061;-90
2022/09/10 09:17:18;;;;;;;24.60;22.10;;;;;;;16.07;100.00;100886.31;4967300;28;20479;-87
2022/09/10 09:20:08;;;;;;;23.67;21.27;;;;;;;16.05;100.00;100896.66;4931217;28;20525;-91
2022/09/10 09:22:45;;;;;;;20.53;18.30;;;;;;;16.02;100.00;100887.06;4967510;28;20073;-90
2022/09/10 09:25:21;;;;;;;21.03;18.77;;;;;;;16.04;100.00;100890.34;4966063;28;20058;-88
2022/09/10 09:27:54;;;;;;;20.93;18.57;;;;;;;16.01;100.00;100893.59;4966909;28;20038;-90
2022/09/10 09:30:23;;;;;;;19.80;17.53;;;;;;;16.02;100.00;100898.00;4966756;28;20027;-89
2022/09/10 09:32:49;;;;;;;22.30;17.83;;;;;;;15.98;100.00;100890.50;4967411;28;20575;-88
2022/09/10 09:35:31;;;;;;;21.43;18.43;;;;;;;16.10;100.00;100899.50;4966958;28;20038;-92
2022/09/10 09:38:05;;;;;;;21.27;18.97;;;;;;;16.17;100.00;100893.88;4966496;28;20030;-87
2022/09/10 09:40:36;;;;;;;;;;;;;;;16.36;100.00;100895.25;4967004;28;20042;-89
2022/09/10 09:43:16;;;;;;;22.80;18.97;;;;;;;16.52;100.00;100888.13;4966385;28;20685;-89
2022/09/10 09:45:42;;;;;;;23.13;18.77;;;;;;;16.61;100.00;100893.19;4966156;28;20235;-89
2022/09/10 09:48:12;;;;;;;22.47;20.07;;;;;;;16.61;100.00;100885.78;4966511;28;20571;-89
2022/09/10 09:50:41;;;;;;;24.20;19.70;;;;;;;16.65;100.00;100894.31;4967302;28;20058;-87
2022/09/10 09:53:08;;;;;;;22.63;18.77;;;;;;;16.66;100.00;100901.47;4966356;28;20062;-87
2022/09/10 09:55:39;;;;;;;21.03;16.50;;;;;;;16.71;100.00;100898.78;4966704;28;20049;-89
2022/09/10 09:58:25;;;;;;;20.27;16.70;;;;;;;16.77;100.00;100900.53;4966568;28;20610;-88
2022/09/10 10:01:03;;;;;;;19.10;16.70;;;;;;;16.74;100.00;100898.28;4966023;28;20049;-88
2022/09/10 10:03:30;;;;;;;20.17;14.80;;;;;;;16.76;100.00;100898.84;4966739;28;20038;-89
2022/09/10 10:06:08;;;;;;;18.07;15.23;;;;;;;16.84;100.00;100892.13;4965621;28;20042;-89
2022/09/10 10:08:43;;;;;;;18.37;15.77;;;;;;;16.96;100.00;100890.13;4966313;28;20073;-85
2022/09/10 10:11:13;;;;;;;21.27;17.20;;;;;;;17.18;100.00;100894.78;4966442;28;20058;-89
2022/09/10 10:13:42;;;;;;;19.07;13.60;;;;;;;17.11;100.00;100897.72;4993205;28;20049;-87
2022/09/10 10:16:15;;;;;;;17.97;12.43;;;;;;;17.10;100.00;100914.41;4996191;28;20124;-90
2022/09/10 10:18:42;;;;;;;17.60;12.43;;;;;;;17.14;100.00;100910.06;4994968;28;20044;-89
2022/09/10 10:21:12;;;;;;;14.50;11.50;;;;;;;17.16;100.00;100906.00;4995633;28;20401;-88
2022/09/10 10:23:39;;;;;;;16.57;12.40;;;;;;;17.15;100.00;100906.25;4996615;28;20512;-87
2022/09/10 10:26:27;;;;;;;13.70;11.37;;;;;;;17.28;100.00;100897.63;4969003;28;20088;-86
2022/09/10 10:29:00;;;;;;;17.07;11.30;;;;;;;17.40;100.00;100900.25;4996866;28;20030;-88
2022/09/10 10:31:52;;;;;;;15.93;10.50;;;;;;;17.46;100.00;100903.88;4996006;28;20077;-89
2022/09/10 10:34:20;;;;;;;15.43;10.83;;;;;;;17.42;100.00;100906.31;4991867;28;20107;-86
2022/09/10 10:37:13;;;;;;;16.07;10.90;;;;;;;17.53;100.00;100923.69;4977973;28;20177;-88
2022/09/10 10:40:03;;;;;;;14.53;10.37;;;;;;;17.48;100.00;100918.97;4995894;28;20045;-88
2022/09/10 10:42:45;;;;;;;12.75;9.35;;;;;;;17.45;100.00;100905.78;4994272;28;20034;-88
2022/09/10 10:45:48;;;;;;;12.43;9.33;;;;;;;17.34;100.00;100918.53;4977352;28;20191;-88
2022/09/10 10:48:34;;;;;;;14.77;9.33;;;;;;;17.26;100.00;100913.50;4981628;28;20053;-94
2022/09/10 10:51:10;;;;;;;16.00;8.60;;;;;;;17.18;100.00;100922.16;4993992;28;20030;-95
2022/09/10 10:53:53;;;;;;;14.57;8.83;;;;;;;17.13;100.00;100922.09;4995916;28;20041;-89
2022/09/10 10:56:41;;;;;;;14.47;7.27;;;;;;;17.07;100.00;100937.63;4996136;28;20042;-88
2022/09/10 10:59:13;;;;;;;12.53;6.77;;;;;;;16.89;100.00;100941.50;4996107;28;20385;-89
2022/09/10 11:01:59;;;;;;;15.13;6.60;;;;;;;16.80;100.00;100940.22;4995971;28;20033;-92
2022/09/10 11:04:40;;;;;;;12.70;6.73;;;;;;;16.72;100.00;100919.59;4996021;28;20188;-89
2022/09/10 11:07:21;;;;;;;13.10;6.47;;;;;;;16.72;100.00;100927.78;4996438;28;20026;-87
2022/09/10 11:10:10;;;;;;;13.03;6.47;;;;;;;16.69;100.00;100933.78;4995360;28;20038;-86
2022/09/10 11:12:52;;;;;;;10.23;5.80;;;;;;;16.65;100.00;100936.19;4996099;28;20197;-90
2022/09/10 11:15:29;;;;;;;11.60;5.00;;;;;;;16.61;100.00;100945.97;4995319;28;20044;-88
2022/09/10 11:18:13;;;;;;;13.07;4.97;;;;;;;16.53;100.00;100936.25;4996022;28;20042;-90